Standort: A- 4920 Schildorn, St. Kollmann 6
Position: Ost 1327'49" Nord 4807'14" 563 m Seehhe
Werte der letzten 24 Stunden
Wetterdaten: aktuell Montag, 22.07.2019 01:40
Datum Zeit Temp. A. Feuchte A. Luftdruck Regen Sonnenschein UV Solar Windben
22.07.2019 01:40 19,1 C 77 % 1021,4 hPa 0,0 l/m 0 min 0,0 UV-I 0 W/m 0,0 km/h
22.07.2019 00:40 17,9 C 79 % 1021,5 hPa 0,0 l/m 0 min 0,0 UV-I 0 W/m 0,0 km/h
21.07.2019 23:40 18,3 C 78 % 1021,6 hPa 0,0 l/m 0 min 0,0 UV-I 0 W/m 0,0 km/h
21.07.2019 22:40 17,4 C 77 % 1021,4 hPa 0,0 l/m 0 min 0,0 UV-I 0 W/m 0,0 km/h
21.07.2019 21:40 19,7 C 76 % 1020,8 hPa 0,0 l/m 0 min 0,0 UV-I 0 W/m 0,0 km/h
21.07.2019 20:40 19,7 C 78 % 1020,0 hPa 0,0 l/m 10 min 0,0 UV-I 9 W/m 12,9 km/h
21.07.2019 19:40 21,7 C 71 % 1019,5 hPa 0,0 l/m 14 min 0,0 UV-I 138 W/m 16,1 km/h
21.07.2019 18:40 22,5 C 69 % 1019,5 hPa 0,0 l/m 18 min 0,0 UV-I 83 W/m 11,3 km/h
21.07.2019 17:40 22,7 C 74 % 1019,4 hPa 0,0 l/m 22 min 1,1 UV-I 312 W/m 9,7 km/h
21.07.2019 16:40 22,4 C 74 % 1018,8 hPa 0,0 l/m 5 min 1,1 UV-I 210 W/m 9,7 km/h
21.07.2019 15:40 22,9 C 72 % 1018,6 hPa 0,0 l/m 42 min 2,3 UV-I 236 W/m 12,9 km/h
21.07.2019 14:40 21,5 C 76 % 1019,3 hPa 0,0 l/m 39 min 5,9 UV-I 799 W/m 12,9 km/h
21.07.2019 13:40 20,2 C 78 % 1020,0 hPa 0,0 l/m 13 min 5,4 UV-I 596 W/m 9,7 km/h
21.07.2019 12:40 18,4 C 81 % 1020,1 hPa 0,0 l/m 0 min 2,8 UV-I 346 W/m 11,3 km/h
21.07.2019 11:40 17,4 C 83 % 1019,7 hPa 2,0 l/m 0 min 1,5 UV-I 204 W/m 11,3 km/h
21.07.2019 10:40 17,2 C 82 % 1019,9 hPa 1,8 l/m 0 min 0,0 UV-I 62 W/m 9,7 km/h
21.07.2019 09:40 16,9 C 81 % 1019,6 hPa 2,0 l/m 0 min 0,0 UV-I 32 W/m 14,5 km/h
21.07.2019 08:40 18,6 C 78 % 1018,2 hPa 0,0 l/m 0 min 0,0 UV-I 21 W/m 17,7 km/h
21.07.2019 07:40 19,0 C 75 % 1017,0 hPa 0,0 l/m 29 min 0,0 UV-I 96 W/m 11,3 km/h
21.07.2019 06:40 17,6 C 78 % 1014,6 hPa 0,0 l/m 1 min 0,0 UV-I 96 W/m 0,0 km/h
21.07.2019 05:40 20,1 C 63 % 1014,0 hPa 0,0 l/m 0 min 0,0 UV-I 7 W/m 6,4 km/h
21.07.2019 04:40 19,9 C 66 % 1013,5 hPa 1,4 l/m 0 min 0,0 UV-I 0 W/m 17,7 km/h
21.07.2019 03:40 19,8 C 68 % 1013,8 hPa 1,1 l/m 0 min 0,0 UV-I 0 W/m 17,7 km/h
21.07.2019 02:40 19,9 C 72 % 1014,5 hPa 0,0 l/m 0 min 0,0 UV-I 0 W/m 20,9 km/h
21.07.2019 02:00 19,6 C 77 % 1014,8 hPa 0,0 l/m 0 min 0,0 UV-I 0 W/m 24,1 km/h
_ Min-Zeit 09:27 05:30 04:20 - - - - 05:47
Minimum _ 16,9 C 63 % 1013,5 hPa - - - - 0,0 km/h
_ Max-Zeit 15:33 10:53 23:12 03:28 06:40 14:27 14:27 08:03
Maximum _ 23,2 C 83 % 1021,6 hPa 0,2 l/m 1 min 6,5 UV-I 887 W/m 32,2 km/h
N
Durchschnitt _ 19,5 C 76 % 1018,2 hPa #8,3 l/m #0 min. 0,0 UV-I 0 W/m 11,7 km/h
Daten ab 1. Mai 2002 - die Jahresstatistiken sind aber falsch (grere Aufzeichnungslcken)